sensor_id;sensor_type;location;lat;lon;timestamp;temperature;humidity
41922;DHT22;27609;51.002;5.354;2023-07-13T00:01:47;16.10;99.90
41922;DHT22;27609;51.002;5.354;2023-07-13T00:04:20;16.00;99.90
41922;DHT22;27609;51.002;5.354;2023-07-13T00:06:47;16.00;99.90
41922;DHT22;27609;51.002;5.354;2023-07-13T00:09:14;16.00;99.90
41922;DHT22;27609;51.002;5.354;2023-07-13T00:11:40;16.10;99.90
41922;DHT22;27609;51.002;5.354;2023-07-13T00:14:06;16.00;99.90
41922;DHT22;27609;51.002;5.354;2023-07-13T00:16:34;16.00;99.90
41922;DHT22;27609;51.002;5.354;2023-07-13T00:19:00;16.10;99.90
41922;DHT22;27609;51.002;5.354;2023-07-13T00:21:26;16.10;99.90
41922;DHT22;27609;51.002;5.354;2023-07-13T00:23:51;16.00;99.90
41922;DHT22;27609;51.002;5.354;2023-07-13T00:26:17;15.90;99.90
41922;DHT22;27609;51.002;5.354;2023-07-13T00:28:43;15.80;99.90
41922;DHT22;27609;51.002;5.354;2023-07-13T00:31:10;15.70;99.90
41922;DHT22;27609;51.002;5.354;2023-07-13T00:33:36;15.60;99.90
41922;DHT22;27609;51.002;5.354;2023-07-13T00:36:02;15.60;99.90
41922;DHT22;27609;51.002;5.354;2023-07-13T00:38:28;15.60;99.90
41922;DHT22;27609;51.002;5.354;2023-07-13T00:40:54;15.70;99.90
41922;DHT22;27609;51.002;5.354;2023-07-13T00:43:22;15.70;99.90
41922;DHT22;27609;51.002;5.354;2023-07-13T00:48:17;15.70;99.90
41922;DHT22;27609;51.002;5.354;2023-07-13T00:50:44;15.80;99.90
41922;DHT22;27609;51.002;5.354;2023-07-13T00:53:12;15.80;99.90
41922;DHT22;27609;51.002;5.354;2023-07-13T00:55:39;15.90;99.90
41922;DHT22;27609;51.002;5.354;2023-07-13T00:58:05;15.90;99.90
41922;DHT22;27609;51.002;5.354;2023-07-13T01:00:36;15.90;99.90
41922;DHT22;27609;51.002;5.354;2023-07-13T01:03:03;15.70;99.90
41922;DHT22;27609;51.002;5.354;2023-07-13T01:05:31;15.60;99.90
41922;DHT22;27609;51.002;5.354;2023-07-13T01:07:59;15.40;99.90
41922;DHT22;27609;51.002;5.354;2023-07-13T01:10:25;15.40;99.90
41922;DHT22;27609;51.002;5.354;2023-07-13T01:12:52;15.40;99.90
41922;DHT22;27609;51.002;5.354;2023-07-13T01:15:40;15.40;99.90
41922;DHT22;27609;51.002;5.354;2023-07-13T01:18:09;15.40;99.90
41922;DHT22;27609;51.002;5.354;2023-07-13T01:20:36;15.30;99.90
41922;DHT22;27609;51.002;5.354;2023-07-13T01:23:09;15.40;99.90
41922;DHT22;27609;51.002;5.354;2023-07-13T01:25:36;15.40;99.90
41922;DHT22;27609;51.002;5.354;2023-07-13T01:28:04;15.30;99.90
41922;DHT22;27609;51.002;5.354;2023-07-13T01:30:30;15.30;99.90
41922;DHT22;27609;51.002;5.354;2023-07-13T01:32:57;15.20;99.90
41922;DHT22;27609;51.002;5.354;2023-07-13T01:35:23;15.20;99.90
41922;DHT22;27609;51.002;5.354;2023-07-13T01:37:51;15.20;99.90
41922;DHT22;27609;51.002;5.354;2023-07-13T01:40:16;15.20;99.90
41922;DHT22;27609;51.002;5.354;2023-07-13T01:42:42;15.20;99.90
41922;DHT22;27609;51.002;5.354;2023-07-13T01:45:08;15.10;99.90
41922;DHT22;27609;51.002;5.354;2023-07-13T01:47:34;15.10;99.90
41922;DHT22;27609;51.002;5.354;2023-07-13T01:49:59;15.10;99.90
41922;DHT22;27609;51.002;5.354;2023-07-13T01:52:25;15.10;99.90
41922;DHT22;27609;51.002;5.354;2023-07-13T01:54:51;15.10;99.90
41922;DHT22;27609;51.002;5.354;2023-07-13T01:57:17;15.10;99.90
41922;DHT22;27609;51.002;5.354;2023-07-13T01:59:42;15.00;99.90
41922;DHT22;27609;51.002;5.354;2023-07-13T02:02:08;15.00;99.90
41922;DHT22;27609;51.002;5.354;2023-07-13T02:04:34;15.10;99.90
41922;DHT22;27609;51.002;5.354;2023-07-13T02:07:00;15.00;99.90
41922;DHT22;27609;51.002;5.354;2023-07-13T02:09:25;15.00;99.90
41922;DHT22;27609;51.002;5.354;2023-07-13T02:11:51;15.10;99.90
41922;DHT22;27609;51.002;5.354;2023-07-13T02:14:16;15.20;99.90
41922;DHT22;27609;51.002;5.354;2023-07-13T02:16:42;15.30;99.90
41922;DHT22;27609;51.002;5.354;2023-07-13T02:19:08;15.40;99.90
41922;DHT22;27609;51.002;5.354;2023-07-13T02:21:34;15.30;99.90
41922;DHT22;27609;51.002;5.354;2023-07-13T02:24:00;15.20;99.90
41922;DHT22;27609;51.002;5.354;2023-07-13T02:26:26;15.20;99.90
41922;DHT22;27609;51.002;5.354;2023-07-13T02:28:52;15.20;99.90
41922;DHT22;27609;51.002;5.354;2023-07-13T02:31:18;15.10;99.90
41922;DHT22;27609;51.002;5.354;2023-07-13T02:33:44;15.10;99.90
41922;DHT22;27609;51.002;5.354;2023-07-13T02:36:10;15.10;99.90
41922;DHT22;27609;51.002;5.354;2023-07-13T02:38:37;14.90;99.90
41922;DHT22;27609;51.002;5.354;2023-07-13T02:41:06;14.90;99.90
41922;DHT22;27609;51.002;5.354;2023-07-13T02:43:33;14.90;99.90
41922;DHT22;27609;51.002;5.354;2023-07-13T02:46:00;14.80;99.90
41922;DHT22;27609;51.002;5.354;2023-07-13T02:48:36;14.70;99.90
41922;DHT22;27609;51.002;5.354;2023-07-13T02:51:02;14.70;99.90
41922;DHT22;27609;51.002;5.354;2023-07-13T02:53:28;14.70;99.90
41922;DHT22;27609;51.002;5.354;2023-07-13T02:55:53;14.70;99.90
41922;DHT22;27609;51.002;5.354;2023-07-13T02:58:19;14.60;99.90
41922;DHT22;27609;51.002;5.354;2023-07-13T03:00:46;14.60;99.90
41922;DHT22;27609;51.002;5.354;2023-07-13T03:03:16;14.60;99.90
41922;DHT22;27609;51.002;5.354;2023-07-13T03:05:43;14.50;99.90
41922;DHT22;27609;51.002;5.354;2023-07-13T03:08:16;14.50;99.90
41922;DHT22;27609;51.002;5.354;2023-07-13T03:10:42;14.50;99.90
41922;DHT22;27609;51.002;5.354;2023-07-13T03:13:07;14.50;99.90
41922;DHT22;27609;51.002;5.354;2023-07-13T03:15:33;14.60;99.90
41922;DHT22;27609;51.002;5.354;2023-07-13T03:17:59;14.60;99.90
41922;DHT22;27609;51.002;5.354;2023-07-13T03:20:24;14.70;99.90
41922;DHT22;27609;51.002;5.354;2023-07-13T03:22:50;14.80;99.90
41922;DHT22;27609;51.002;5.354;2023-07-13T03:25:16;14.80;99.90
41922;DHT22;27609;51.002;5.354;2023-07-13T03:27:41;14.80;99.90
41922;DHT22;27609;51.002;5.354;2023-07-13T03:30:07;14.80;99.90
41922;DHT22;27609;51.002;5.354;2023-07-13T03:32:33;14.90;99.90
41922;DHT22;27609;51.002;5.354;2023-07-13T03:34:59;14.90;99.90
41922;DHT22;27609;51.002;5.354;2023-07-13T03:37:25;14.90;99.90
41922;DHT22;27609;51.002;5.354;2023-07-13T03:39:51;15.00;99.90
41922;DHT22;27609;51.002;5.354;2023-07-13T03:42:16;15.00;99.90
41922;DHT22;27609;51.002;5.354;2023-07-13T03:44:42;15.00;99.90
41922;DHT22;27609;51.002;5.354;2023-07-13T03:47:11;15.00;99.90
41922;DHT22;27609;51.002;5.354;2023-07-13T03:49:37;15.00;99.90
41922;DHT22;27609;51.002;5.354;2023-07-13T03:52:03;15.00;99.90
41922;DHT22;27609;51.002;5.354;2023-07-13T03:54:29;15.00;99.90
41922;DHT22;27609;51.002;5.354;2023-07-13T03:56:54;15.10;99.90
41922;DHT22;27609;51.002;5.354;2023-07-13T03:59:20;15.10;99.90
41922;DHT22;27609;51.002;5.354;2023-07-13T04:01:46;15.10;99.90
41922;DHT22;27609;51.002;5.354;2023-07-13T04:04:12;15.10;99.90
41922;DHT22;27609;51.002;5.354;2023-07-13T04:06:37;15.20;99.90
41922;DHT22;27609;51.002;5.354;2023-07-13T04:09:04;15.20;99.90
41922;DHT22;27609;51.002;5.354;2023-07-13T04:11:34;15.20;99.90
41922;DHT22;27609;51.002;5.354;2023-07-13T04:14:02;15.20;99.90
41922;DHT22;27609;51.002;5.354;2023-07-13T04:16:28;15.20;99.90
41922;DHT22;27609;51.002;5.354;2023-07-13T04:18:55;15.20;99.90
41922;DHT22;27609;51.002;5.354;2023-07-13T04:21:25;15.20;99.90
41922;DHT22;27609;51.002;5.354;2023-07-13T04:23:51;15.20;99.90
41922;DHT22;27609;51.002;5.354;2023-07-13T04:26:16;15.20;99.90
41922;DHT22;27609;51.002;5.354;2023-07-13T04:28:42;15.30;99.90
41922;DHT22;27609;51.002;5.354;2023-07-13T04:31:08;15.30;99.90
41922;DHT22;27609;51.002;5.354;2023-07-13T04:33:33;15.30;99.90
41922;DHT22;27609;51.002;5.354;2023-07-13T04:35:59;15.30;99.90
41922;DHT22;27609;51.002;5.354;2023-07-13T04:38:29;15.30;99.90
41922;DHT22;27609;51.002;5.354;2023-07-13T04:40:57;15.40;99.90
41922;DHT22;27609;51.002;5.354;2023-07-13T04:43:23;15.50;99.90
41922;DHT22;27609;51.002;5.354;2023-07-13T04:45:51;15.60;99.90
41922;DHT22;27609;51.002;5.354;2023-07-13T04:48:16;15.60;99.90
41922;DHT22;27609;51.002;5.354;2023-07-13T04:50:42;15.60;99.90
41922;DHT22;27609;51.002;5.354;2023-07-13T04:53:09;15.60;99.90
41922;DHT22;27609;51.002;5.354;2023-07-13T04:55:36;15.60;99.90
41922;DHT22;27609;51.002;5.354;2023-07-13T04:58:01;15.60;99.90
41922;DHT22;27609;51.002;5.354;2023-07-13T05:00:28;15.50;99.90
41922;DHT22;27609;51.002;5.354;2023-07-13T05:02:55;15.60;99.90
41922;DHT22;27609;51.002;5.354;2023-07-13T05:05:23;15.60;99.90
41922;DHT22;27609;51.002;5.354;2023-07-13T05:07:48;15.60;99.90
41922;DHT22;27609;51.002;5.354;2023-07-13T05:10:14;15.60;99.90
41922;DHT22;27609;51.002;5.354;2023-07-13T05:12:40;15.70;99.90
41922;DHT22;27609;51.002;5.354;2023-07-13T05:15:06;15.70;99.90
41922;DHT22;27609;51.002;5.354;2023-07-13T05:17:32;15.60;99.90
41922;DHT22;27609;51.002;5.354;2023-07-13T05:19:58;15.70;99.90
41922;DHT22;27609;51.002;5.354;2023-07-13T05:22:24;15.70;99.90
41922;DHT22;27609;51.002;5.354;2023-07-13T05:24:49;15.70;99.90
41922;DHT22;27609;51.002;5.354;2023-07-13T05:27:15;15.70;99.90
41922;DHT22;27609;51.002;5.354;2023-07-13T05:29:41;15.80;99.90
41922;DHT22;27609;51.002;5.354;2023-07-13T05:32:06;15.80;99.90
41922;DHT22;27609;51.002;5.354;2023-07-13T05:34:32;15.90;99.90
41922;DHT22;27609;51.002;5.354;2023-07-13T05:36:58;15.90;99.90
41922;DHT22;27609;51.002;5.354;2023-07-13T05:39:23;16.00;99.90
41922;DHT22;27609;51.002;5.354;2023-07-13T05:41:50;16.10;99.90
41922;DHT22;27609;51.002;5.354;2023-07-13T05:44:15;16.10;99.90
41922;DHT22;27609;51.002;5.354;2023-07-13T05:46:41;16.20;99.90
41922;DHT22;27609;51.002;5.354;2023-07-13T05:49:07;16.20;99.90
41922;DHT22;27609;51.002;5.354;2023-07-13T05:51:32;16.30;99.90
41922;DHT22;27609;51.002;5.354;2023-07-13T05:53:58;16.20;99.90
41922;DHT22;27609;51.002;5.354;2023-07-13T05:56:24;16.40;99.90
41922;DHT22;27609;51.002;5.354;2023-07-13T05:58:50;16.40;99.90
41922;DHT22;27609;51.002;5.354;2023-07-13T06:01:16;16.30;99.90
41922;DHT22;27609;51.002;5.354;2023-07-13T06:03:43;16.30;99.90
41922;DHT22;27609;51.002;5.354;2023-07-13T06:06:10;16.20;99.90
41922;DHT22;27609;51.002;5.354;2023-07-13T06:08:36;16.20;99.90
41922;DHT22;27609;51.002;5.354;2023-07-13T06:11:07;16.30;99.90
41922;DHT22;27609;51.002;5.354;2023-07-13T06:13:33;16.30;99.90
41922;DHT22;27609;51.002;5.354;2023-07-13T06:16:00;16.40;99.90
41922;DHT22;27609;51.002;5.354;2023-07-13T06:18:26;16.40;99.90
41922;DHT22;27609;51.002;5.354;2023-07-13T06:20:51;16.50;99.90
41922;DHT22;27609;51.002;5.354;2023-07-13T06:23:17;16.60;99.90
41922;DHT22;27609;51.002;5.354;2023-07-13T06:25:43;16.60;99.90
41922;DHT22;27609;51.002;5.354;2023-07-13T06:28:09;16.60;99.90
41922;DHT22;27609;51.002;5.354;2023-07-13T06:30:34;16.60;99.90
41922;DHT22;27609;51.002;5.354;2023-07-13T06:33:00;16.70;99.90
41922;DHT22;27609;51.002;5.354;2023-07-13T06:35:26;16.80;99.90
41922;DHT22;27609;51.002;5.354;2023-07-13T06:37:51;16.80;99.90
41922;DHT22;27609;51.002;5.354;2023-07-13T06:40:17;16.90;99.90
41922;DHT22;27609;51.002;5.354;2023-07-13T06:42:43;16.90;99.90
41922;DHT22;27609;51.002;5.354;2023-07-13T06:45:08;17.00;99.90
41922;DHT22;27609;51.002;5.354;2023-07-13T06:47:34;16.90;99.90
41922;DHT22;27609;51.002;5.354;2023-07-13T06:50:00;17.00;99.90
41922;DHT22;27609;51.002;5.354;2023-07-13T06:52:26;17.10;99.90
41922;DHT22;27609;51.002;5.354;2023-07-13T06:54:51;17.30;99.90
41922;DHT22;27609;51.002;5.354;2023-07-13T06:57:17;17.50;99.90
41922;DHT22;27609;51.002;5.354;2023-07-13T06:59:43;17.60;99.90
41922;DHT22;27609;51.002;5.354;2023-07-13T07:02:11;17.50;99.90
41922;DHT22;27609;51.002;5.354;2023-07-13T07:04:37;17.40;99.90
41922;DHT22;27609;51.002;5.354;2023-07-13T07:07:03;17.60;99.90
41922;DHT22;27609;51.002;5.354;2023-07-13T07:09:29;17.60;99.90
41922;DHT22;27609;51.002;5.354;2023-07-13T07:11:56;17.50;99.90
41922;DHT22;27609;51.002;5.354;2023-07-13T07:14:22;17.50;99.90
41922;DHT22;27609;51.002;5.354;2023-07-13T07:16:49;17.60;99.90
41922;DHT22;27609;51.002;5.354;2023-07-13T07:19:15;17.50;99.90
41922;DHT22;27609;51.002;5.354;2023-07-13T07:21:40;17.60;99.90
41922;DHT22;27609;51.002;5.354;2023-07-13T07:24:06;17.80;99.90
41922;DHT22;27609;51.002;5.354;2023-07-13T07:26:33;17.60;99.90
41922;DHT22;27609;51.002;5.354;2023-07-13T07:29:00;17.60;99.90
41922;DHT22;27609;51.002;5.354;2023-07-13T07:31:26;17.80;99.90
41922;DHT22;27609;51.002;5.354;2023-07-13T07:33:51;17.80;99.90
41922;DHT22;27609;51.002;5.354;2023-07-13T07:36:17;17.90;99.90
41922;DHT22;27609;51.002;5.354;2023-07-13T07:38:43;18.00;99.90
41922;DHT22;27609;51.002;5.354;2023-07-13T07:41:09;17.90;99.90
41922;DHT22;27609;51.002;5.354;2023-07-13T07:43:35;18.10;99.90
41922;DHT22;27609;51.002;5.354;2023-07-13T07:46:02;18.20;99.90
41922;DHT22;27609;51.002;5.354;2023-07-13T07:48:28;18.30;99.90
41922;DHT22;27609;51.002;5.354;2023-07-13T07:50:53;18.50;99.90
41922;DHT22;27609;51.002;5.354;2023-07-13T07:53:19;18.60;99.90
41922;DHT22;27609;51.002;5.354;2023-07-13T07:55:45;18.60;99.90
41922;DHT22;27609;51.002;5.354;2023-07-13T07:58:11;18.80;99.90
41922;DHT22;27609;51.002;5.354;2023-07-13T08:00:36;19.00;99.90
41922;DHT22;27609;51.002;5.354;2023-07-13T08:03:02;19.10;99.90
41922;DHT22;27609;51.002;5.354;2023-07-13T08:05:28;19.10;99.90
41922;DHT22;27609;51.002;5.354;2023-07-13T08:07:55;19.20;99.90
41922;DHT22;27609;51.002;5.354;2023-07-13T08:10:21;19.60;99.90
41922;DHT22;27609;51.002;5.354;2023-07-13T08:12:47;19.60;99.90
41922;DHT22;27609;51.002;5.354;2023-07-13T08:15:15;20.00;99.90
41922;DHT22;27609;51.002;5.354;2023-07-13T08:17:41;20.00;99.90
41922;DHT22;27609;51.002;5.354;2023-07-13T08:20:07;19.80;99.90
41922;DHT22;27609;51.002;5.354;2023-07-13T08:22:34;19.90;99.90
41922;DHT22;27609;51.002;5.354;2023-07-13T08:25:01;20.70;99.90
41922;DHT22;27609;51.002;5.354;2023-07-13T08:27:28;20.60;99.90
41922;DHT22;27609;51.002;5.354;2023-07-13T08:29:54;20.30;99.90
41922;DHT22;27609;51.002;5.354;2023-07-13T08:32:21;20.30;99.90
41922;DHT22;27609;51.002;5.354;2023-07-13T08:34:47;20.40;99.90
41922;DHT22;27609;51.002;5.354;2023-07-13T08:37:13;20.30;99.90
41922;DHT22;27609;51.002;5.354;2023-07-13T08:39:39;21.00;99.90
41922;DHT22;27609;51.002;5.354;2023-07-13T08:42:11;20.80;99.90
41922;DHT22;27609;51.002;5.354;2023-07-13T08:47:35;20.90;99.90
41922;DHT22;27609;51.002;5.354;2023-07-13T08:50:03;21.30;99.90
41922;DHT22;27609;51.002;5.354;2023-07-13T08:52:33;21.30;99.90
41922;DHT22;27609;51.002;5.354;2023-07-13T08:55:15;21.40;99.90
41922;DHT22;27609;51.002;5.354;2023-07-13T08:57:44;21.50;99.90
41922;DHT22;27609;51.002;5.354;2023-07-13T09:00:12;21.00;99.90
41922;DHT22;27609;51.002;5.354;2023-07-13T09:02:57;21.10;99.90
41922;DHT22;27609;51.002;5.354;2023-07-13T09:10:36;21.60;99.90
41922;DHT22;27609;51.002;5.354;2023-07-13T09:15:53;21.80;99.90
41922;DHT22;27609;51.002;5.354;2023-07-13T09:18:35;22.60;99.90
41922;DHT22;27609;51.002;5.354;2023-07-13T09:21:09;23.00;99.90
41922;DHT22;27609;51.002;5.354;2023-07-13T09:23:36;23.70;99.90
41922;DHT22;27609;51.002;5.354;2023-07-13T09:26:19;25.00;99.90
41922;DHT22;27609;51.002;5.354;2023-07-13T09:28:48;23.60;99.90
41922;DHT22;27609;51.002;5.354;2023-07-13T09:31:16;23.40;99.90
41922;DHT22;27609;51.002;5.354;2023-07-13T09:33:42;22.50;99.90
41922;DHT22;27609;51.002;5.354;2023-07-13T09:36:18;23.50;99.90
41922;DHT22;27609;51.002;5.354;2023-07-13T09:38:44;24.60;99.90
41922;DHT22;27609;51.002;5.354;2023-07-13T09:44:15;23.10;99.90
41922;DHT22;27609;51.002;5.354;2023-07-13T09:46:47;22.60;99.90
41922;DHT22;27609;51.002;5.354;2023-07-13T09:49:18;23.70;99.90
41922;DHT22;27609;51.002;5.354;2023-07-13T09:51:44;24.70;99.90
41922;DHT22;27609;51.002;5.354;2023-07-13T09:54:24;25.60;99.90
41922;DHT22;27609;51.002;5.354;2023-07-13T09:56:58;26.50;99.90
41922;DHT22;27609;51.002;5.354;2023-07-13T09:59:37;26.80;99.90
41922;DHT22;27609;51.002;5.354;2023-07-13T10:02:33;26.50;99.90
41922;DHT22;27609;51.002;5.354;2023-07-13T10:05:01;26.20;99.90
41922;DHT22;27609;51.002;5.354;2023-07-13T10:07:29;26.80;99.90
41922;DHT22;27609;51.002;5.354;2023-07-13T10:09:56;27.60;99.90
41922;DHT22;27609;51.002;5.354;2023-07-13T10:12:23;25.90;99.90
41922;DHT22;27609;51.002;5.354;2023-07-13T10:14:52;25.10;99.90
41922;DHT22;27609;51.002;5.354;2023-07-13T10:17:34;23.90;99.90
41922;DHT22;27609;51.002;5.354;2023-07-13T10:20:04;23.30;99.90
41922;DHT22;27609;51.002;5.354;2023-07-13T10:25:18;23.20;99.90
41922;DHT22;27609;51.002;5.354;2023-07-13T10:27:45;24.80;99.90
41922;DHT22;27609;51.002;5.354;2023-07-13T10:30:24;25.30;99.90
41922;DHT22;27609;51.002;5.354;2023-07-13T10:32:58;25.40;99.90
41922;DHT22;27609;51.002;5.354;2023-07-13T10:35:24;24.10;99.90
41922;DHT22;27609;51.002;5.354;2023-07-13T10:38:07;23.00;99.90
41922;DHT22;27609;51.002;5.354;2023-07-13T10:43:20;25.10;99.90
41922;DHT22;27609;51.002;5.354;2023-07-13T10:45:48;24.90;99.90
41922;DHT22;27609;51.002;5.354;2023-07-13T10:48:15;24.90;99.90
41922;DHT22;27609;51.002;5.354;2023-07-13T10:50:44;25.70;99.90
41922;DHT22;27609;51.002;5.354;2023-07-13T10:53:30;26.50;99.90
41922;DHT22;27609;51.002;5.354;2023-07-13T10:56:00;25.10;99.90
41922;DHT22;27609;51.002;5.354;2023-07-13T10:58:36;24.60;99.90
41922;DHT22;27609;51.002;5.354;2023-07-13T11:03:35;23.80;99.90
41922;DHT22;27609;51.002;5.354;2023-07-13T11:06:09;23.10;99.90
41922;DHT22;27609;51.002;5.354;2023-07-13T11:08:39;22.50;99.90
41922;DHT22;27609;51.002;5.354;2023-07-13T11:13:58;22.20;99.90
41922;DHT22;27609;51.002;5.354;2023-07-13T11:19:24;24.80;99.90
41922;DHT22;27609;51.002;5.354;2023-07-13T11:22:12;26.30;99.90
41922;DHT22;27609;51.002;5.354;2023-07-13T11:24:58;25.70;99.90
41922;DHT22;27609;51.002;5.354;2023-07-13T11:27:35;24.40;99.90
41922;DHT22;27609;51.002;5.354;2023-07-13T11:30:24;26.00;99.90
41922;DHT22;27609;51.002;5.354;2023-07-13T11:40:54;26.80;99.90
41922;DHT22;27609;51.002;5.354;2023-07-13T11:43:38;26.40;99.90
41922;DHT22;27609;51.002;5.354;2023-07-13T11:48:46;26.10;99.90
41922;DHT22;27609;51.002;5.354;2023-07-13T11:51:21;24.70;99.90
41922;DHT22;27609;51.002;5.354;2023-07-13T11:53:50;24.50;99.90
41922;DHT22;27609;51.002;5.354;2023-07-13T11:56:16;24.00;99.90
41922;DHT22;27609;51.002;5.354;2023-07-13T11:58:42;24.30;99.90
41922;DHT22;27609;51.002;5.354;2023-07-13T12:01:27;25.20;99.90
41922;DHT22;27609;51.002;5.354;2023-07-13T12:04:01;25.80;99.90
41922;DHT22;27609;51.002;5.354;2023-07-13T12:06:36;25.80;99.90
41922;DHT22;27609;51.002;5.354;2023-07-13T12:09:13;24.20;99.90
41922;DHT22;27609;51.002;5.354;2023-07-13T12:11:42;23.30;99.90
41922;DHT22;27609;51.002;5.354;2023-07-13T12:14:18;23.20;99.90
41922;DHT22;27609;51.002;5.354;2023-07-13T12:16:46;23.20;99.90
41922;DHT22;27609;51.002;5.354;2023-07-13T12:19:21;23.50;99.90
41922;DHT22;27609;51.002;5.354;2023-07-13T12:21:48;24.60;99.90
41922;DHT22;27609;51.002;5.354;2023-07-13T12:24:16;25.30;99.90
41922;DHT22;27609;51.002;5.354;2023-07-13T12:26:42;25.70;99.90
41922;DHT22;27609;51.002;5.354;2023-07-13T12:29:13;24.90;99.90
41922;DHT22;27609;51.002;5.354;2023-07-13T12:31:45;25.60;99.90
41922;DHT22;27609;51.002;5.354;2023-07-13T12:34:20;26.40;99.90
41922;DHT22;27609;51.002;5.354;2023-07-13T12:37:00;26.10;99.90
41922;DHT22;27609;51.002;5.354;2023-07-13T12:39:36;25.70;99.90
41922;DHT22;27609;51.002;5.354;2023-07-13T12:42:25;25.50;99.90
41922;DHT22;27609;51.002;5.354;2023-07-13T12:45:05;24.90;99.90
41922;DHT22;27609;51.002;5.354;2023-07-13T12:47:42;24.80;99.90
41922;DHT22;27609;51.002;5.354;2023-07-13T12:50:17;24.40;99.90
41922;DHT22;27609;51.002;5.354;2023-07-13T12:52:44;24.70;99.90
41922;DHT22;27609;51.002;5.354;2023-07-13T12:55:20;24.80;99.90
41922;DHT22;27609;51.002;5.354;2023-07-13T12:57:57;25.30;99.90
41922;DHT22;27609;51.002;5.354;2023-07-13T13:02:54;26.20;99.90
41922;DHT22;27609;51.002;5.354;2023-07-13T13:05:21;26.90;99.90
41922;DHT22;27609;51.002;5.354;2023-07-13T13:07:49;26.80;99.90
41922;DHT22;27609;51.002;5.354;2023-07-13T13:10:15;26.00;99.90
41922;DHT22;27609;51.002;5.354;2023-07-13T13:12:41;25.40;99.90
41922;DHT22;27609;51.002;5.354;2023-07-13T13:15:10;25.10;99.90
41922;DHT22;27609;51.002;5.354;2023-07-13T13:17:37;24.60;99.90
41922;DHT22;27609;51.002;5.354;2023-07-13T13:20:21;24.70;99.90
41922;DHT22;27609;51.002;5.354;2023-07-13T13:22:47;24.50;99.90
41922;DHT22;27609;51.002;5.354;2023-07-13T13:25:14;24.20;99.90
41922;DHT22;27609;51.002;5.354;2023-07-13T13:27:44;23.50;99.90
41922;DHT22;27609;51.002;5.354;2023-07-13T13:30:14;23.30;99.90
41922;DHT22;27609;51.002;5.354;2023-07-13T13:32:41;22.80;99.90
41922;DHT22;27609;51.002;5.354;2023-07-13T13:35:17;22.40;99.90
41922;DHT22;27609;51.002;5.354;2023-07-13T13:37:43;22.00;99.90
41922;DHT22;27609;51.002;5.354;2023-07-13T13:40:17;21.80;99.90
41922;DHT22;27609;51.002;5.354;2023-07-13T13:42:43;21.70;99.90
41922;DHT22;27609;51.002;5.354;2023-07-13T13:45:12;21.50;99.90
41922;DHT22;27609;51.002;5.354;2023-07-13T13:47:39;21.20;99.90
41922;DHT22;27609;51.002;5.354;2023-07-13T13:50:20;21.20;99.90
41922;DHT22;27609;51.002;5.354;2023-07-13T13:52:47;21.30;99.90
41922;DHT22;27609;51.002;5.354;2023-07-13T13:55:21;21.40;99.90
41922;DHT22;27609;51.002;5.354;2023-07-13T13:57:49;21.60;99.90
41922;DHT22;27609;51.002;5.354;2023-07-13T14:00:16;21.60;99.90
41922;DHT22;27609;51.002;5.354;2023-07-13T14:02:46;21.70;99.90
41922;DHT22;27609;51.002;5.354;2023-07-13T14:05:26;21.50;99.90
41922;DHT22;27609;51.002;5.354;2023-07-13T14:07:53;21.50;99.90
41922;DHT22;27609;51.002;5.354;2023-07-13T14:10:19;21.50;99.90
41922;DHT22;27609;51.002;5.354;2023-07-13T14:12:47;21.40;99.90
41922;DHT22;27609;51.002;5.354;2023-07-13T14:15:33;21.50;99.90
41922;DHT22;27609;51.002;5.354;2023-07-13T14:17:59;21.60;99.90
41922;DHT22;27609;51.002;5.354;2023-07-13T14:20:25;21.60;99.90
41922;DHT22;27609;51.002;5.354;2023-07-13T14:22:52;21.50;99.90
41922;DHT22;27609;51.002;5.354;2023-07-13T14:25:19;21.80;99.90
41922;DHT22;27609;51.002;5.354;2023-07-13T14:27:48;22.20;99.90
41922;DHT22;27609;51.002;5.354;2023-07-13T14:30:17;22.60;99.90
41922;DHT22;27609;51.002;5.354;2023-07-13T14:32:43;23.00;99.90
41922;DHT22;27609;51.002;5.354;2023-07-13T14:35:14;23.10;99.90
41922;DHT22;27609;51.002;5.354;2023-07-13T14:37:41;23.00;99.90
41922;DHT22;27609;51.002;5.354;2023-07-13T14:40:19;23.40;99.90
41922;DHT22;27609;51.002;5.354;2023-07-13T14:42:47;23.10;99.90
41922;DHT22;27609;51.002;5.354;2023-07-13T14:45:14;23.50;99.90
41922;DHT22;27609;51.002;5.354;2023-07-13T14:47:42;23.60;99.90
41922;DHT22;27609;51.002;5.354;2023-07-13T14:50:30;23.60;99.90
41922;DHT22;27609;51.002;5.354;2023-07-13T14:52:56;23.70;99.90
41922;DHT22;27609;51.002;5.354;2023-07-13T14:55:21;23.70;99.90
41922;DHT22;27609;51.002;5.354;2023-07-13T14:57:49;23.70;99.90
41922;DHT22;27609;51.002;5.354;2023-07-13T15:00:17;23.50;99.90
41922;DHT22;27609;51.002;5.354;2023-07-13T15:02:46;23.60;99.90
41922;DHT22;27609;51.002;5.354;2023-07-13T15:05:21;24.10;99.90
41922;DHT22;27609;51.002;5.354;2023-07-13T15:07:51;24.20;99.90
41922;DHT22;27609;51.002;5.354;2023-07-13T15:10:19;24.00;99.90
41922;DHT22;27609;51.002;5.354;2023-07-13T15:12:45;24.70;99.90
41922;DHT22;27609;51.002;5.354;2023-07-13T15:15:11;25.20;99.90
41922;DHT22;27609;51.002;5.354;2023-07-13T15:17:42;24.90;99.90
41922;DHT22;27609;51.002;5.354;2023-07-13T15:20:29;25.10;99.90
41922;DHT22;27609;51.002;5.354;2023-07-13T15:22:56;25.40;99.90
41922;DHT22;27609;51.002;5.354;2023-07-13T15:25:27;25.50;99.90
41922;DHT22;27609;51.002;5.354;2023-07-13T15:27:55;25.80;99.90
41922;DHT22;27609;51.002;5.354;2023-07-13T15:30:21;25.40;99.90
41922;DHT22;27609;51.002;5.354;2023-07-13T15:32:48;25.70;99.90
41922;DHT22;27609;51.002;5.354;2023-07-13T15:35:20;25.60;99.90
41922;DHT22;27609;51.002;5.354;2023-07-13T15:37:46;25.20;99.90
41922;DHT22;27609;51.002;5.354;2023-07-13T15:40:13;25.10;99.90
41922;DHT22;27609;51.002;5.354;2023-07-13T15:42:40;25.00;99.90
41922;DHT22;27609;51.002;5.354;2023-07-13T15:45:16;24.60;99.90
41922;DHT22;27609;51.002;5.354;2023-07-13T15:47:43;25.10;99.90
41922;DHT22;27609;51.002;5.354;2023-07-13T15:50:17;25.10;99.90
41922;DHT22;27609;51.002;5.354;2023-07-13T15:52:47;24.90;99.90
41922;DHT22;27609;51.002;5.354;2023-07-13T15:55:14;25.20;99.90
41922;DHT22;27609;51.002;5.354;2023-07-13T15:57:51;25.30;99.90
41922;DHT22;27609;51.002;5.354;2023-07-13T16:00:23;25.10;99.90
41922;DHT22;27609;51.002;5.354;2023-07-13T16:02:49;25.20;99.90
41922;DHT22;27609;51.002;5.354;2023-07-13T16:05:16;25.20;99.90
41922;DHT22;27609;51.002;5.354;2023-07-13T16:07:46;25.30;99.90
41922;DHT22;27609;51.002;5.354;2023-07-13T16:10:27;24.90;99.90
41922;DHT22;27609;51.002;5.354;2023-07-13T16:12:55;24.70;99.90
41922;DHT22;27609;51.002;5.354;2023-07-13T16:15:22;24.60;99.90
41922;DHT22;27609;51.002;5.354;2023-07-13T16:17:48;24.40;99.90
41922;DHT22;27609;51.002;5.354;2023-07-13T16:20:15;24.30;99.90
41922;DHT22;27609;51.002;5.354;2023-07-13T16:22:45;24.50;99.90